Terminal Aerodrome Forecast
Issued by NWS Tuscon, AZ

Home | Current Version | Previous Version | Text Only | Print | Product List | Glossary On
Versions: 1 2 3 4 5 6 7 8 9 10 11 12 13
000
FTUS45 KTWC 271734
TAFDUG
TAF
KDUG 271734Z 2718/2818 18009KT P6SM SCT250
     FM272000 22014G24KT P6SM FEW250
     FM280200 25010KT P6SM SCT250
     FM280500 35006KT P6SM SCT250=

USA.gov is the U.S. government's official web portal to all federal, state and local government web resources and services.